CLP2 weather

Montreal / Laval (Artopex Plus) Heliport
Montréal, Quebec, Canada

Public forecast

Using degrees Celsius for public forecast. Weather courtesy of forecast.io.

Closest aviation weather report (METAR) to Montreal / Laval (Artopex Plus) Heliport

Closest report is Montreal / Pierre Elliott Trudeau International Airport, 6.5 nm (12.0 km) S. Retrieved 2020/01/18 19:00 UTC (38 minutes ago):

CYUL 181900Z 05011KT 15SM FEW020 BKN090 OVC130 M14/M19 A3028 RMK SC1AC7AC1 SC TR SLP260

Closest aviation forecast (TAF) to Montreal / Laval (Artopex Plus) Heliport

Closest forecast is Montreal / Pierre Elliott Trudeau International Airport, 6.5 nm (12.0 km) S. Retrieved 2020/01/18 21:42 UTC (0 seconds ago):

TAF CYUL 182038Z 1821/1918 08010KT P6SM FEW012 BKN160 TEMPO 1821/1822 P6SM -SN BKN012 FM182130 05012KT 11/2SM -SN VV015 TEMPO 1821/1823 5SM -SN PROB40 1822/1823 3/4SM -SN VV008 FM182300 04012G22KT 3/4SM -SN VV008 TEMPO 1823/1905 11/2SM -SN OVC012 PROB30 1900/1904 3/8SM SN BLSN VV004 FM190500 04012G22KT 11/2SM -SN VV010 TEMPO 1905/1910 3/4SM -SN VV008 FM191000 03015KT 21/2SM -SN OVC015 FM191200 02012KT P6SM -SN OVC015 TEMPO 1912/1914 5SM -SN RMK NXT FCST BY 190000Z